sensor_id;sensor_type;location;lat;lon;timestamp;P1;durP1;ratioP1;P2;durP2;ratioP2
41546;SDS011;27271;45.412;10.852;2023-03-01T00:01:33;29.02;;;11.02;;
41546;SDS011;27271;45.412;10.852;2023-03-01T00:04:55;30.40;;;11.68;;
41546;SDS011;27271;45.412;10.852;2023-03-01T00:08:17;31.73;;;11.38;;
41546;SDS011;27271;45.412;10.852;2023-03-01T00:11:38;27.70;;;11.05;;
41546;SDS011;27271;45.412;10.852;2023-03-01T00:15:00;21.45;;;10.00;;
41546;SDS011;27271;45.412;10.852;2023-03-01T00:18:22;24.70;;;10.40;;
41546;SDS011;27271;45.412;10.852;2023-03-01T00:21:45;19.00;;;9.18;;
41546;SDS011;27271;45.412;10.852;2023-03-01T00:25:07;20.83;;;9.35;;
41546;SDS011;27271;45.412;10.852;2023-03-01T00:28:29;22.55;;;9.95;;
41546;SDS011;27271;45.412;10.852;2023-03-01T00:31:52;27.73;;;10.82;;
41546;SDS011;27271;45.412;10.852;2023-03-01T00:35:15;25.50;;;10.73;;
41546;SDS011;27271;45.412;10.852;2023-03-01T00:38:38;29.90;;;10.07;;
41546;SDS011;27271;45.412;10.852;2023-03-01T00:42:01;30.83;;;11.23;;
41546;SDS011;27271;45.412;10.852;2023-03-01T00:45:23;25.50;;;11.00;;
41546;SDS011;27271;45.412;10.852;2023-03-01T00:48:46;30.38;;;11.98;;
41546;SDS011;27271;45.412;10.852;2023-03-01T00:52:09;26.80;;;10.80;;
41546;SDS011;27271;45.412;10.852;2023-03-01T00:55:31;31.70;;;9.75;;
41546;SDS011;27271;45.412;10.852;2023-03-01T00:58:53;26.30;;;10.65;;
41546;SDS011;27271;45.412;10.852;2023-03-01T01:02:15;25.48;;;10.05;;
41546;SDS011;27271;45.412;10.852;2023-03-01T01:05:38;25.17;;;9.60;;
41546;SDS011;27271;45.412;10.852;2023-03-01T01:09:00;22.60;;;9.88;;
41546;SDS011;27271;45.412;10.852;2023-03-01T01:12:23;24.52;;;10.07;;
41546;SDS011;27271;45.412;10.852;2023-03-01T01:15:45;27.52;;;9.90;;
41546;SDS011;27271;45.412;10.852;2023-03-01T01:19:07;25.67;;;10.02;;
41546;SDS011;27271;45.412;10.852;2023-03-01T01:22:30;26.77;;;10.18;;
41546;SDS011;27271;45.412;10.852;2023-03-01T01:25:52;18.98;;;8.80;;
41546;SDS011;27271;45.412;10.852;2023-03-01T01:29:14;23.20;;;9.63;;
41546;SDS011;27271;45.412;10.852;2023-03-01T01:32:36;25.17;;;9.38;;
41546;SDS011;27271;45.412;10.852;2023-03-01T01:35:58;24.85;;;8.57;;
41546;SDS011;27271;45.412;10.852;2023-03-01T01:39:20;27.83;;;8.75;;
41546;SDS011;27271;45.412;10.852;2023-03-01T01:42:43;22.65;;;9.38;;
41546;SDS011;27271;45.412;10.852;2023-03-01T01:46:13;23.20;;;9.25;;
41546;SDS011;27271;45.412;10.852;2023-03-01T01:49:54;22.00;;;8.73;;
41546;SDS011;27271;45.412;10.852;2023-03-01T01:53:18;23.48;;;9.48;;
41546;SDS011;27271;45.412;10.852;2023-03-01T01:56:42;22.45;;;8.93;;
41546;SDS011;27271;45.412;10.852;2023-03-01T02:00:11;20.15;;;9.30;;
41546;SDS011;27271;45.412;10.852;2023-03-01T02:03:44;20.15;;;8.13;;
41546;SDS011;27271;45.412;10.852;2023-03-01T02:07:17;29.73;;;9.60;;
41546;SDS011;27271;45.412;10.852;2023-03-01T02:10:42;21.15;;;9.15;;
41546;SDS011;27271;45.412;10.852;2023-03-01T02:14:04;28.70;;;8.93;;
41546;SDS011;27271;45.412;10.852;2023-03-01T02:17:27;26.70;;;10.27;;
41546;SDS011;27271;45.412;10.852;2023-03-01T02:31:46;19.13;;;8.93;;
41546;SDS011;27271;45.412;10.852;2023-03-01T02:35:10;28.15;;;9.82;;
41546;SDS011;27271;45.412;10.852;2023-03-01T02:38:35;27.73;;;10.80;;
41546;SDS011;27271;45.412;10.852;2023-03-01T02:41:57;28.55;;;9.85;;
41546;SDS011;27271;45.412;10.852;2023-03-01T02:45:22;20.00;;;8.73;;
41546;SDS011;27271;45.412;10.852;2023-03-01T02:48:51;25.38;;;10.70;;
41546;SDS011;27271;45.412;10.852;2023-03-01T02:56:06;29.55;;;11.05;;
41546;SDS011;27271;45.412;10.852;2023-03-01T02:59:35;25.92;;;9.90;;
41546;SDS011;27271;45.412;10.852;2023-03-01T03:03:02;26.02;;;9.55;;
41546;SDS011;27271;45.412;10.852;2023-03-01T03:06:24;27.20;;;9.57;;
41546;SDS011;27271;45.412;10.852;2023-03-01T03:09:47;27.70;;;10.40;;
41546;SDS011;27271;45.412;10.852;2023-03-01T03:13:10;26.45;;;9.45;;
41546;SDS011;27271;45.412;10.852;2023-03-01T03:16:35;26.35;;;10.57;;
41546;SDS011;27271;45.412;10.852;2023-03-01T03:19:57;26.58;;;11.38;;
41546;SDS011;27271;45.412;10.852;2023-03-01T03:23:20;28.50;;;10.77;;
41546;SDS011;27271;45.412;10.852;2023-03-01T03:26:42;25.73;;;10.02;;
41546;SDS011;27271;45.412;10.852;2023-03-01T03:30:05;27.52;;;10.10;;
41546;SDS011;27271;45.412;10.852;2023-03-01T03:33:30;28.38;;;10.45;;
41546;SDS011;27271;45.412;10.852;2023-03-01T03:36:56;27.88;;;9.40;;
41546;SDS011;27271;45.412;10.852;2023-03-01T03:40:20;33.58;;;10.73;;
41546;SDS011;27271;45.412;10.852;2023-03-01T03:43:42;27.80;;;10.30;;
41546;SDS011;27271;45.412;10.852;2023-03-01T03:47:05;34.25;;;11.18;;
41546;SDS011;27271;45.412;10.852;2023-03-01T03:50:27;29.80;;;10.77;;
41546;SDS011;27271;45.412;10.852;2023-03-01T03:53:49;28.50;;;11.50;;
41546;SDS011;27271;45.412;10.852;2023-03-01T03:57:11;31.92;;;11.63;;
41546;SDS011;27271;45.412;10.852;2023-03-01T04:00:37;27.35;;;10.30;;
41546;SDS011;27271;45.412;10.852;2023-03-01T04:04:01;29.60;;;10.98;;
41546;SDS011;27271;45.412;10.852;2023-03-01T04:07:25;24.10;;;11.20;;
41546;SDS011;27271;45.412;10.852;2023-03-01T04:10:51;30.58;;;12.68;;
41546;SDS011;27271;45.412;10.852;2023-03-01T04:14:17;29.58;;;11.45;;
41546;SDS011;27271;45.412;10.852;2023-03-01T04:17:40;30.15;;;10.75;;
41546;SDS011;27271;45.412;10.852;2023-03-01T04:21:02;34.42;;;10.65;;
41546;SDS011;27271;45.412;10.852;2023-03-01T04:24:25;31.77;;;11.18;;
41546;SDS011;27271;45.412;10.852;2023-03-01T04:27:47;27.25;;;10.57;;
41546;SDS011;27271;45.412;10.852;2023-03-01T04:31:10;32.75;;;11.88;;
41546;SDS011;27271;45.412;10.852;2023-03-01T04:34:35;49.40;;;13.25;;
41546;SDS011;27271;45.412;10.852;2023-03-01T04:37:57;31.73;;;10.55;;
41546;SDS011;27271;45.412;10.852;2023-03-01T04:41:20;28.95;;;10.80;;
41546;SDS011;27271;45.412;10.852;2023-03-01T04:44:44;28.30;;;10.88;;
41546;SDS011;27271;45.412;10.852;2023-03-01T04:48:07;29.35;;;10.77;;
41546;SDS011;27271;45.412;10.852;2023-03-01T04:51:29;29.23;;;10.95;;
41546;SDS011;27271;45.412;10.852;2023-03-01T04:54:51;29.30;;;10.88;;
41546;SDS011;27271;45.412;10.852;2023-03-01T04:58:13;29.60;;;12.10;;
41546;SDS011;27271;45.412;10.852;2023-03-01T05:01:35;34.65;;;12.48;;
41546;SDS011;27271;45.412;10.852;2023-03-01T05:04:58;33.58;;;11.25;;
41546;SDS011;27271;45.412;10.852;2023-03-01T05:08:20;33.05;;;12.13;;
41546;SDS011;27271;45.412;10.852;2023-03-01T05:11:42;28.67;;;12.57;;
41546;SDS011;27271;45.412;10.852;2023-03-01T05:15:04;28.10;;;11.90;;
41546;SDS011;27271;45.412;10.852;2023-03-01T05:18:29;33.05;;;11.25;;
41546;SDS011;27271;45.412;10.852;2023-03-01T05:21:53;30.48;;;12.30;;
41546;SDS011;27271;45.412;10.852;2023-03-01T05:25:27;29.00;;;11.68;;
41546;SDS011;27271;45.412;10.852;2023-03-01T05:28:55;35.40;;;13.45;;
41546;SDS011;27271;45.412;10.852;2023-03-01T05:32:21;35.30;;;11.80;;
41546;SDS011;27271;45.412;10.852;2023-03-01T05:35:43;32.00;;;12.57;;
41546;SDS011;27271;45.412;10.852;2023-03-01T05:39:06;34.30;;;13.70;;
41546;SDS011;27271;45.412;10.852;2023-03-01T05:42:28;35.25;;;14.25;;
41546;SDS011;27271;45.412;10.852;2023-03-01T05:45:50;40.85;;;13.43;;
41546;SDS011;27271;45.412;10.852;2023-03-01T05:49:12;34.08;;;13.68;;
41546;SDS011;27271;45.412;10.852;2023-03-01T05:52:35;33.13;;;12.65;;
41546;SDS011;27271;45.412;10.852;2023-03-01T05:55:57;31.77;;;14.02;;
41546;SDS011;27271;45.412;10.852;2023-03-01T05:59:19;35.28;;;12.55;;
41546;SDS011;27271;45.412;10.852;2023-03-01T06:02:41;29.92;;;12.07;;
41546;SDS011;27271;45.412;10.852;2023-03-01T06:06:03;35.88;;;14.18;;
41546;SDS011;27271;45.412;10.852;2023-03-01T06:09:25;33.30;;;12.68;;
41546;SDS011;27271;45.412;10.852;2023-03-01T06:12:48;35.40;;;13.10;;
41546;SDS011;27271;45.412;10.852;2023-03-01T06:16:10;36.88;;;13.80;;
41546;SDS011;27271;45.412;10.852;2023-03-01T06:19:33;33.30;;;14.57;;
41546;SDS011;27271;45.412;10.852;2023-03-01T06:22:55;30.52;;;12.93;;
41546;SDS011;27271;45.412;10.852;2023-03-01T06:26:17;40.17;;;14.52;;
41546;SDS011;27271;45.412;10.852;2023-03-01T06:29:40;32.70;;;13.57;;
41546;SDS011;27271;45.412;10.852;2023-03-01T06:33:03;37.45;;;14.25;;
41546;SDS011;27271;45.412;10.852;2023-03-01T06:36:25;34.42;;;13.07;;
41546;SDS011;27271;45.412;10.852;2023-03-01T06:39:47;32.55;;;13.48;;
41546;SDS011;27271;45.412;10.852;2023-03-01T06:43:09;33.58;;;13.30;;
41546;SDS011;27271;45.412;10.852;2023-03-01T06:46:31;42.90;;;14.93;;
41546;SDS011;27271;45.412;10.852;2023-03-01T06:49:54;41.10;;;16.90;;
41546;SDS011;27271;45.412;10.852;2023-03-01T06:53:16;39.47;;;14.95;;
41546;SDS011;27271;45.412;10.852;2023-03-01T06:56:38;37.28;;;15.43;;
41546;SDS011;27271;45.412;10.852;2023-03-01T07:00:01;45.95;;;17.02;;
41546;SDS011;27271;45.412;10.852;2023-03-01T07:03:24;40.30;;;16.70;;
41546;SDS011;27271;45.412;10.852;2023-03-01T07:06:46;37.42;;;14.85;;
41546;SDS011;27271;45.412;10.852;2023-03-01T07:10:15;41.35;;;17.13;;
41546;SDS011;27271;45.412;10.852;2023-03-01T07:13:37;33.67;;;14.05;;
41546;SDS011;27271;45.412;10.852;2023-03-01T07:17:00;44.85;;;16.38;;
41546;SDS011;27271;45.412;10.852;2023-03-01T07:20:22;43.10;;;16.60;;
41546;SDS011;27271;45.412;10.852;2023-03-01T07:23:49;35.97;;;16.95;;
41546;SDS011;27271;45.412;10.852;2023-03-01T07:27:11;41.58;;;15.88;;
41546;SDS011;27271;45.412;10.852;2023-03-01T07:30:33;37.88;;;16.15;;
41546;SDS011;27271;45.412;10.852;2023-03-01T07:33:55;39.05;;;15.88;;
41546;SDS011;27271;45.412;10.852;2023-03-01T07:37:18;31.17;;;14.20;;
41546;SDS011;27271;45.412;10.852;2023-03-01T07:40:40;38.00;;;15.65;;
41546;SDS011;27271;45.412;10.852;2023-03-01T07:44:02;39.45;;;17.05;;
41546;SDS011;27271;45.412;10.852;2023-03-01T07:47:24;40.53;;;18.98;;
41546;SDS011;27271;45.412;10.852;2023-03-01T07:50:46;36.85;;;16.33;;
41546;SDS011;27271;45.412;10.852;2023-03-01T07:54:08;37.47;;;15.43;;
41546;SDS011;27271;45.412;10.852;2023-03-01T07:57:30;34.90;;;16.20;;
41546;SDS011;27271;45.412;10.852;2023-03-01T08:00:52;39.20;;;16.35;;
41546;SDS011;27271;45.412;10.852;2023-03-01T08:04:14;42.25;;;17.10;;
41546;SDS011;27271;45.412;10.852;2023-03-01T08:07:36;42.95;;;16.60;;
41546;SDS011;27271;45.412;10.852;2023-03-01T08:10:59;35.65;;;15.57;;
41546;SDS011;27271;45.412;10.852;2023-03-01T08:14:22;38.08;;;16.25;;
41546;SDS011;27271;45.412;10.852;2023-03-01T08:17:44;36.50;;;16.55;;
41546;SDS011;27271;45.412;10.852;2023-03-01T08:21:07;35.83;;;15.95;;
41546;SDS011;27271;45.412;10.852;2023-03-01T08:24:31;39.88;;;16.65;;
41546;SDS011;27271;45.412;10.852;2023-03-01T08:27:53;39.17;;;16.33;;
41546;SDS011;27271;45.412;10.852;2023-03-01T08:31:20;33.60;;;15.40;;
41546;SDS011;27271;45.412;10.852;2023-03-01T08:34:46;39.70;;;16.88;;
41546;SDS011;27271;45.412;10.852;2023-03-01T08:38:08;39.65;;;16.42;;
41546;SDS011;27271;45.412;10.852;2023-03-01T08:41:30;37.72;;;16.75;;
41546;SDS011;27271;45.412;10.852;2023-03-01T08:44:52;39.42;;;16.70;;
41546;SDS011;27271;45.412;10.852;2023-03-01T08:48:14;34.13;;;15.77;;
41546;SDS011;27271;45.412;10.852;2023-03-01T08:51:36;37.45;;;15.10;;
41546;SDS011;27271;45.412;10.852;2023-03-01T08:54:59;36.10;;;15.70;;
41546;SDS011;27271;45.412;10.852;2023-03-01T08:58:22;32.80;;;13.35;;
41546;SDS011;27271;45.412;10.852;2023-03-01T09:01:47;38.15;;;15.20;;
41546;SDS011;27271;45.412;10.852;2023-03-01T09:05:10;29.45;;;13.15;;
41546;SDS011;27271;45.412;10.852;2023-03-01T09:08:33;26.48;;;13.15;;
41546;SDS011;27271;45.412;10.852;2023-03-01T09:11:59;28.85;;;13.45;;
41546;SDS011;27271;45.412;10.852;2023-03-01T09:15:21;33.65;;;13.40;;
41546;SDS011;27271;45.412;10.852;2023-03-01T09:18:43;28.52;;;13.95;;
41546;SDS011;27271;45.412;10.852;2023-03-01T09:22:06;32.08;;;14.18;;
41546;SDS011;27271;45.412;10.852;2023-03-01T09:25:33;33.08;;;13.18;;
41546;SDS011;27271;45.412;10.852;2023-03-01T09:28:55;29.08;;;12.13;;
41546;SDS011;27271;45.412;10.852;2023-03-01T09:32:18;30.90;;;13.98;;
41546;SDS011;27271;45.412;10.852;2023-03-01T09:35:40;28.98;;;12.35;;
41546;SDS011;27271;45.412;10.852;2023-03-01T09:39:07;31.67;;;13.95;;
41546;SDS011;27271;45.412;10.852;2023-03-01T09:42:29;33.00;;;14.18;;
41546;SDS011;27271;45.412;10.852;2023-03-01T09:45:59;34.30;;;14.43;;
41546;SDS011;27271;45.412;10.852;2023-03-01T09:49:30;34.75;;;14.20;;
41546;SDS011;27271;45.412;10.852;2023-03-01T09:53:03;38.80;;;15.13;;
41546;SDS011;27271;45.412;10.852;2023-03-01T10:00:11;31.40;;;13.65;;
41546;SDS011;27271;45.412;10.852;2023-03-01T10:03:50;38.63;;;14.82;;
41546;SDS011;27271;45.412;10.852;2023-03-01T10:11:20;37.13;;;15.65;;
41546;SDS011;27271;45.412;10.852;2023-03-01T10:18:18;36.13;;;14.70;;
41546;SDS011;27271;45.412;10.852;2023-03-01T10:21:45;34.25;;;14.60;;
41546;SDS011;27271;45.412;10.852;2023-03-01T10:25:12;30.60;;;14.65;;
41546;SDS011;27271;45.412;10.852;2023-03-01T10:32:08;29.77;;;14.00;;
41546;SDS011;27271;45.412;10.852;2023-03-01T10:35:33;38.95;;;16.38;;
41546;SDS011;27271;45.412;10.852;2023-03-01T10:38:56;31.92;;;14.65;;
41546;SDS011;27271;45.412;10.852;2023-03-01T10:42:20;33.20;;;13.60;;
41546;SDS011;27271;45.412;10.852;2023-03-01T10:45:47;30.67;;;13.75;;
41546;SDS011;27271;45.412;10.852;2023-03-01T10:49:20;30.08;;;13.25;;
41546;SDS011;27271;45.412;10.852;2023-03-01T10:53:00;31.20;;;12.90;;
41546;SDS011;27271;45.412;10.852;2023-03-01T10:56:23;34.60;;;14.07;;
41546;SDS011;27271;45.412;10.852;2023-03-01T10:59:46;36.70;;;14.55;;
41546;SDS011;27271;45.412;10.852;2023-03-01T11:03:29;39.08;;;16.63;;
41546;SDS011;27271;45.412;10.852;2023-03-01T11:06:59;34.88;;;15.95;;
41546;SDS011;27271;45.412;10.852;2023-03-01T11:17:19;35.60;;;16.02;;
41546;SDS011;27271;45.412;10.852;2023-03-01T11:21:15;46.38;;;16.50;;
41546;SDS011;27271;45.412;10.852;2023-03-01T11:24:45;37.38;;;16.63;;
41546;SDS011;27271;45.412;10.852;2023-03-01T11:28:23;39.10;;;17.20;;
41546;SDS011;27271;45.412;10.852;2023-03-01T11:31:48;39.67;;;16.60;;
41546;SDS011;27271;45.412;10.852;2023-03-01T11:35:20;42.47;;;21.05;;
41546;SDS011;27271;45.412;10.852;2023-03-01T11:38:44;31.15;;;15.65;;
41546;SDS011;27271;45.412;10.852;2023-03-01T11:42:12;33.47;;;15.20;;
41546;SDS011;27271;45.412;10.852;2023-03-01T11:45:54;34.88;;;15.68;;
41546;SDS011;27271;45.412;10.852;2023-03-01T12:12:08;30.33;;;13.38;;
41546;SDS011;27271;45.412;10.852;2023-03-01T12:15:50;34.22;;;13.73;;
41546;SDS011;27271;45.412;10.852;2023-03-01T12:27:09;19.35;;;9.07;;
41546;SDS011;27271;45.412;10.852;2023-03-01T12:34:47;22.10;;;8.80;;
41546;SDS011;27271;45.412;10.852;2023-03-01T12:46:19;16.75;;;7.50;;
41546;SDS011;27271;45.412;10.852;2023-03-01T12:49:52;19.83;;;5.82;;
41546;SDS011;27271;45.412;10.852;2023-03-01T12:56:45;11.10;;;5.70;;
41546;SDS011;27271;45.412;10.852;2023-03-01T13:00:33;10.77;;;4.57;;
41546;SDS011;27271;45.412;10.852;2023-03-01T13:08:26;12.50;;;5.65;;
41546;SDS011;27271;45.412;10.852;2023-03-01T13:11:49;11.20;;;4.97;;
41546;SDS011;27271;45.412;10.852;2023-03-01T13:18:46;10.30;;;4.82;;
41546;SDS011;27271;45.412;10.852;2023-03-01T13:26:15;11.57;;;4.63;;
41546;SDS011;27271;45.412;10.852;2023-03-01T13:29:49;12.95;;;4.30;;
41546;SDS011;27271;45.412;10.852;2023-03-01T13:36:50;10.40;;;4.47;;
41546;SDS011;27271;45.412;10.852;2023-03-01T13:43:42;6.93;;;3.63;;
41546;SDS011;27271;45.412;10.852;2023-03-01T13:50:38;7.53;;;3.22;;
41546;SDS011;27271;45.412;10.852;2023-03-01T13:54:09;11.13;;;3.58;;
41546;SDS011;27271;45.412;10.852;2023-03-01T13:57:37;9.75;;;4.15;;
41546;SDS011;27271;45.412;10.852;2023-03-01T14:07:51;11.02;;;4.00;;
41546;SDS011;27271;45.412;10.852;2023-03-01T14:11:35;12.15;;;5.45;;
41546;SDS011;27271;45.412;10.852;2023-03-01T14:15:32;13.90;;;4.32;;
41546;SDS011;27271;45.412;10.852;2023-03-01T14:19:16;8.52;;;4.05;;
41546;SDS011;27271;45.412;10.852;2023-03-01T14:22:55;11.07;;;4.85;;
41546;SDS011;27271;45.412;10.852;2023-03-01T14:26:23;9.13;;;4.07;;
41546;SDS011;27271;45.412;10.852;2023-03-01T14:30:02;8.25;;;4.15;;
41546;SDS011;27271;45.412;10.852;2023-03-01T14:33:32;9.38;;;3.92;;
41546;SDS011;27271;45.412;10.852;2023-03-01T14:37:09;16.90;;;4.80;;
41546;SDS011;27271;45.412;10.852;2023-03-01T14:40:43;8.13;;;3.40;;
41546;SDS011;27271;45.412;10.852;2023-03-01T14:44:06;12.75;;;4.80;;
41546;SDS011;27271;45.412;10.852;2023-03-01T14:47:34;11.60;;;5.18;;
41546;SDS011;27271;45.412;10.852;2023-03-01T14:50:58;13.65;;;5.85;;
41546;SDS011;27271;45.412;10.852;2023-03-01T14:54:26;10.23;;;3.38;;
41546;SDS011;27271;45.412;10.852;2023-03-01T14:57:56;8.50;;;3.55;;
41546;SDS011;27271;45.412;10.852;2023-03-01T15:01:21;7.35;;;3.78;;
41546;SDS011;27271;45.412;10.852;2023-03-01T15:04:45;9.38;;;3.47;;
41546;SDS011;27271;45.412;10.852;2023-03-01T15:08:27;7.88;;;3.28;;
41546;SDS011;27271;45.412;10.852;2023-03-01T15:11:55;6.50;;;3.60;;
41546;SDS011;27271;45.412;10.852;2023-03-01T15:15:36;10.35;;;4.25;;
41546;SDS011;27271;45.412;10.852;2023-03-01T15:19:01;6.85;;;3.95;;
41546;SDS011;27271;45.412;10.852;2023-03-01T15:22:27;12.63;;;4.65;;
41546;SDS011;27271;45.412;10.852;2023-03-01T15:25:50;9.77;;;4.07;;
41546;SDS011;27271;45.412;10.852;2023-03-01T15:32:44;14.80;;;5.05;;
41546;SDS011;27271;45.412;10.852;2023-03-01T15:39:56;18.60;;;4.90;;
41546;SDS011;27271;45.412;10.852;2023-03-01T15:43:42;11.30;;;4.75;;
41546;SDS011;27271;45.412;10.852;2023-03-01T15:47:22;9.60;;;5.10;;
41546;SDS011;27271;45.412;10.852;2023-03-01T15:50:53;15.98;;;6.43;;
41546;SDS011;27271;45.412;10.852;2023-03-01T15:54:18;16.35;;;5.97;;
41546;SDS011;27271;45.412;10.852;2023-03-01T15:57:42;24.05;;;6.63;;
41546;SDS011;27271;45.412;10.852;2023-03-01T16:01:08;12.45;;;5.88;;
41546;SDS011;27271;45.412;10.852;2023-03-01T16:04:35;13.15;;;5.38;;
41546;SDS011;27271;45.412;10.852;2023-03-01T16:07:57;11.88;;;5.93;;
41546;SDS011;27271;45.412;10.852;2023-03-01T16:11:20;15.85;;;5.55;;
41546;SDS011;27271;45.412;10.852;2023-03-01T16:14:43;12.77;;;4.80;;
41546;SDS011;27271;45.412;10.852;2023-03-01T16:18:05;15.68;;;6.40;;
41546;SDS011;27271;45.412;10.852;2023-03-01T16:21:29;11.88;;;5.07;;
41546;SDS011;27271;45.412;10.852;2023-03-01T16:24:52;10.45;;;5.22;;
41546;SDS011;27271;45.412;10.852;2023-03-01T16:28:14;11.20;;;4.95;;
41546;SDS011;27271;45.412;10.852;2023-03-01T16:31:36;12.15;;;5.40;;
41546;SDS011;27271;45.412;10.852;2023-03-01T16:34:58;12.25;;;5.03;;
41546;SDS011;27271;45.412;10.852;2023-03-01T16:38:20;14.73;;;5.18;;
41546;SDS011;27271;45.412;10.852;2023-03-01T16:41:42;14.95;;;5.60;;
41546;SDS011;27271;45.412;10.852;2023-03-01T16:45:05;13.55;;;5.88;;
41546;SDS011;27271;45.412;10.852;2023-03-01T16:48:43;15.98;;;5.63;;
41546;SDS011;27271;45.412;10.852;2023-03-01T16:52:06;12.82;;;5.70;;
41546;SDS011;27271;45.412;10.852;2023-03-01T16:55:28;13.13;;;5.53;;
41546;SDS011;27271;45.412;10.852;2023-03-01T16:58:50;14.18;;;5.68;;
41546;SDS011;27271;45.412;10.852;2023-03-01T17:02:13;9.57;;;5.40;;
41546;SDS011;27271;45.412;10.852;2023-03-01T17:05:40;10.63;;;5.25;;
41546;SDS011;27271;45.412;10.852;2023-03-01T17:09:03;14.02;;;6.13;;
41546;SDS011;27271;45.412;10.852;2023-03-01T17:12:25;15.95;;;6.13;;
41546;SDS011;27271;45.412;10.852;2023-03-01T17:15:47;10.73;;;5.57;;
41546;SDS011;27271;45.412;10.852;2023-03-01T17:19:09;10.32;;;5.00;;
41546;SDS011;27271;45.412;10.852;2023-03-01T17:22:32;18.20;;;6.88;;
41546;SDS011;27271;45.412;10.852;2023-03-01T17:25:54;12.18;;;6.28;;
41546;SDS011;27271;45.412;10.852;2023-03-01T17:29:16;15.15;;;8.05;;
41546;SDS011;27271;45.412;10.852;2023-03-01T17:32:39;14.13;;;7.18;;
41546;SDS011;27271;45.412;10.852;2023-03-01T17:36:02;18.20;;;7.32;;
41546;SDS011;27271;45.412;10.852;2023-03-01T17:39:24;12.48;;;6.60;;
41546;SDS011;27271;45.412;10.852;2023-03-01T17:42:51;14.80;;;6.72;;
41546;SDS011;27271;45.412;10.852;2023-03-01T17:46:13;17.05;;;8.45;;
41546;SDS011;27271;45.412;10.852;2023-03-01T17:49:36;17.30;;;7.50;;
41546;SDS011;27271;45.412;10.852;2023-03-01T17:52:58;40.83;;;15.25;;
41546;SDS011;27271;45.412;10.852;2023-03-01T17:56:21;18.10;;;8.30;;
41546;SDS011;27271;45.412;10.852;2023-03-01T17:59:43;13.27;;;6.45;;
41546;SDS011;27271;45.412;10.852;2023-03-01T18:03:05;16.60;;;6.95;;
41546;SDS011;27271;45.412;10.852;2023-03-01T18:06:28;19.42;;;7.70;;
41546;SDS011;27271;45.412;10.852;2023-03-01T18:09:51;16.35;;;7.50;;
41546;SDS011;27271;45.412;10.852;2023-03-01T18:13:13;19.65;;;7.43;;
41546;SDS011;27271;45.412;10.852;2023-03-01T18:16:35;11.68;;;6.40;;
41546;SDS011;27271;45.412;10.852;2023-03-01T18:20:00;11.52;;;6.70;;
41546;SDS011;27271;45.412;10.852;2023-03-01T18:23:22;13.32;;;7.47;;
41546;SDS011;27271;45.412;10.852;2023-03-01T18:26:44;14.57;;;7.72;;
41546;SDS011;27271;45.412;10.852;2023-03-01T18:30:07;13.30;;;7.13;;
41546;SDS011;27271;45.412;10.852;2023-03-01T18:33:30;12.65;;;6.88;;
41546;SDS011;27271;45.412;10.852;2023-03-01T18:36:52;16.08;;;7.97;;
41546;SDS011;27271;45.412;10.852;2023-03-01T18:40:30;12.73;;;7.55;;
41546;SDS011;27271;45.412;10.852;2023-03-01T18:43:55;12.57;;;6.88;;
41546;SDS011;27271;45.412;10.852;2023-03-01T18:47:17;15.25;;;7.97;;
41546;SDS011;27271;45.412;10.852;2023-03-01T18:50:40;14.80;;;8.23;;
41546;SDS011;27271;45.412;10.852;2023-03-01T18:54:03;13.93;;;7.70;;
41546;SDS011;27271;45.412;10.852;2023-03-01T18:57:25;14.73;;;7.88;;
41546;SDS011;27271;45.412;10.852;2023-03-01T19:00:47;14.55;;;7.85;;
41546;SDS011;27271;45.412;10.852;2023-03-01T19:04:10;11.75;;;7.60;;
41546;SDS011;27271;45.412;10.852;2023-03-01T19:07:32;12.63;;;7.55;;
41546;SDS011;27271;45.412;10.852;2023-03-01T19:10:55;13.65;;;7.15;;
41546;SDS011;27271;45.412;10.852;2023-03-01T19:17:46;17.90;;;7.72;;
41546;SDS011;27271;45.412;10.852;2023-03-01T19:21:09;15.75;;;7.97;;
41546;SDS011;27271;45.412;10.852;2023-03-01T19:24:31;13.95;;;7.80;;
41546;SDS011;27271;45.412;10.852;2023-03-01T19:27:54;14.98;;;8.68;;
41546;SDS011;27271;45.412;10.852;2023-03-01T19:31:17;14.30;;;8.10;;
41546;SDS011;27271;45.412;10.852;2023-03-01T19:34:41;17.00;;;8.13;;
41546;SDS011;27271;45.412;10.852;2023-03-01T19:38:03;15.80;;;7.82;;
41546;SDS011;27271;45.412;10.852;2023-03-01T19:41:25;15.77;;;7.65;;
41546;SDS011;27271;45.412;10.852;2023-03-01T19:44:48;13.48;;;7.43;;
41546;SDS011;27271;45.412;10.852;2023-03-01T19:48:10;12.57;;;7.55;;
41546;SDS011;27271;45.412;10.852;2023-03-01T19:51:32;14.88;;;8.02;;
41546;SDS011;27271;45.412;10.852;2023-03-01T19:54:56;16.33;;;7.43;;
41546;SDS011;27271;45.412;10.852;2023-03-01T19:58:31;12.25;;;6.80;;
41546;SDS011;27271;45.412;10.852;2023-03-01T20:01:55;12.20;;;7.30;;
41546;SDS011;27271;45.412;10.852;2023-03-01T20:05:19;13.18;;;6.75;;
41546;SDS011;27271;45.412;10.852;2023-03-01T20:08:44;11.60;;;7.03;;
41546;SDS011;27271;45.412;10.852;2023-03-01T20:12:12;15.82;;;7.40;;
41546;SDS011;27271;45.412;10.852;2023-03-01T20:15:39;11.95;;;6.60;;
41546;SDS011;27271;45.412;10.852;2023-03-01T20:19:05;14.13;;;7.32;;
41546;SDS011;27271;45.412;10.852;2023-03-01T20:22:40;14.48;;;7.60;;
41546;SDS011;27271;45.412;10.852;2023-03-01T20:26:06;13.95;;;7.82;;
41546;SDS011;27271;45.412;10.852;2023-03-01T20:29:31;13.60;;;7.85;;
41546;SDS011;27271;45.412;10.852;2023-03-01T20:32:55;17.95;;;8.27;;
41546;SDS011;27271;45.412;10.852;2023-03-01T20:36:17;19.10;;;9.90;;
41546;SDS011;27271;45.412;10.852;2023-03-01T20:39:39;19.95;;;9.23;;
41546;SDS011;27271;45.412;10.852;2023-03-01T20:43:01;27.67;;;14.18;;
41546;SDS011;27271;45.412;10.852;2023-03-01T20:46:24;23.25;;;12.93;;
41546;SDS011;27271;45.412;10.852;2023-03-01T20:49:49;18.63;;;11.00;;
41546;SDS011;27271;45.412;10.852;2023-03-01T20:53:12;14.05;;;8.52;;
41546;SDS011;27271;45.412;10.852;2023-03-01T20:56:34;7.97;;;5.03;;
41546;SDS011;27271;45.412;10.852;2023-03-01T20:59:58;8.88;;;3.90;;
41546;SDS011;27271;45.412;10.852;2023-03-01T21:03:20;6.10;;;3.30;;
41546;SDS011;27271;45.412;10.852;2023-03-01T21:06:42;5.15;;;3.25;;
41546;SDS011;27271;45.412;10.852;2023-03-01T21:10:05;6.55;;;3.67;;
41546;SDS011;27271;45.412;10.852;2023-03-01T21:13:27;6.20;;;3.08;;
41546;SDS011;27271;45.412;10.852;2023-03-01T21:16:50;5.93;;;3.35;;
41546;SDS011;27271;45.412;10.852;2023-03-01T21:20:12;5.22;;;2.92;;
41546;SDS011;27271;45.412;10.852;2023-03-01T21:23:35;5.88;;;3.03;;
41546;SDS011;27271;45.412;10.852;2023-03-01T21:26:58;9.27;;;3.47;;
41546;SDS011;27271;45.412;10.852;2023-03-01T21:30:20;7.43;;;3.63;;
41546;SDS011;27271;45.412;10.852;2023-03-01T21:33:43;7.82;;;3.92;;
41546;SDS011;27271;45.412;10.852;2023-03-01T21:37:10;6.20;;;3.78;;
41546;SDS011;27271;45.412;10.852;2023-03-01T21:40:32;6.35;;;3.50;;
41546;SDS011;27271;45.412;10.852;2023-03-01T21:43:57;7.13;;;3.40;;
41546;SDS011;27271;45.412;10.852;2023-03-01T21:47:23;5.43;;;3.00;;
41546;SDS011;27271;45.412;10.852;2023-03-01T21:50:52;4.93;;;3.10;;
41546;SDS011;27271;45.412;10.852;2023-03-01T21:54:15;6.57;;;3.55;;